sensor_id;sensor_type;location;lat;lon;timestamp;pressure;altitude;pressure_sealevel;temperature;humidity
69909;BME280;57190;47.918;8.112;2023-04-23T00:01:06;90381.34;;;9.01;77.22
69909;BME280;57190;47.918;8.112;2023-04-23T00:03:33;90381.34;;;8.96;77.57
69909;BME280;57190;47.918;8.112;2023-04-23T00:06:09;90371.50;;;8.96;77.81
69909;BME280;57190;47.918;8.112;2023-04-23T00:08:39;90370.94;;;9.00;77.61
69909;BME280;57190;47.918;8.112;2023-04-23T00:11:05;90368.03;;;8.96;78.26
69909;BME280;57190;47.918;8.112;2023-04-23T00:13:31;90374.44;;;8.90;78.70
69909;BME280;57190;47.918;8.112;2023-04-23T00:15:57;90365.38;;;8.91;78.97
69909;BME280;57190;47.918;8.112;2023-04-23T00:18:23;90377.63;;;8.87;79.43
69909;BME280;57190;47.918;8.112;2023-04-23T00:20:49;90369.13;;;8.85;79.56
69909;BME280;57190;47.918;8.112;2023-04-23T00:23:14;90367.53;;;8.84;79.36
69909;BME280;57190;47.918;8.112;2023-04-23T00:25:40;90366.47;;;8.79;79.39
69909;BME280;57190;47.918;8.112;2023-04-23T00:28:06;90356.88;;;8.78;79.53
69909;BME280;57190;47.918;8.112;2023-04-23T00:30:32;90363.25;;;8.77;79.38
69909;BME280;57190;47.918;8.112;2023-04-23T00:32:58;90371.25;;;8.72;79.68
69909;BME280;57190;47.918;8.112;2023-04-23T00:35:23;90362.22;;;8.68;79.00
69909;BME280;57190;47.918;8.112;2023-04-23T00:37:49;90358.22;;;8.65;78.79
69909;BME280;57190;47.918;8.112;2023-04-23T00:40:15;90358.78;;;8.62;78.68
69909;BME280;57190;47.918;8.112;2023-04-23T00:42:40;90358.25;;;8.60;78.56
69909;BME280;57190;47.918;8.112;2023-04-23T00:45:07;90364.09;;;8.52;78.85
69909;BME280;57190;47.918;8.112;2023-04-23T00:47:36;90351.34;;;8.54;78.75
69909;BME280;57190;47.918;8.112;2023-04-23T00:50:02;90352.94;;;8.55;78.23
69909;BME280;57190;47.918;8.112;2023-04-23T00:52:28;90361.16;;;8.54;78.37
69909;BME280;57190;47.918;8.112;2023-04-23T00:54:54;90365.16;;;8.51;78.69
69909;BME280;57190;47.918;8.112;2023-04-23T00:57:22;90359.56;;;8.47;79.02
69909;BME280;57190;47.918;8.112;2023-04-23T00:59:48;90358.75;;;8.42;78.78
69909;BME280;57190;47.918;8.112;2023-04-23T01:02:14;90367.53;;;8.42;78.56
69909;BME280;57190;47.918;8.112;2023-04-23T01:04:42;90370.97;;;8.43;78.61
69909;BME280;57190;47.918;8.112;2023-04-23T01:07:09;90364.88;;;8.42;78.53
69909;BME280;57190;47.918;8.112;2023-04-23T01:09:36;90360.06;;;8.39;78.61
69909;BME280;57190;47.918;8.112;2023-04-23T01:12:04;90364.06;;;8.37;78.55
69909;BME280;57190;47.918;8.112;2023-04-23T01:14:30;90365.94;;;8.31;79.26
69909;BME280;57190;47.918;8.112;2023-04-23T01:16:56;90359.81;;;8.25;79.36
69909;BME280;57190;47.918;8.112;2023-04-23T01:19:22;90353.44;;;8.21;79.49
69909;BME280;57190;47.918;8.112;2023-04-23T01:21:49;90358.22;;;8.19;79.26
69909;BME280;57190;47.918;8.112;2023-04-23T01:24:14;90357.91;;;8.10;79.40
69909;BME280;57190;47.918;8.112;2023-04-23T01:26:40;90361.41;;;8.11;79.73
69909;BME280;57190;47.918;8.112;2023-04-23T01:29:06;90359.53;;;8.11;79.48
69909;BME280;57190;47.918;8.112;2023-04-23T01:31:32;90357.38;;;8.03;79.63
69909;BME280;57190;47.918;8.112;2023-04-23T01:33:59;90356.34;;;7.99;79.74
69909;BME280;57190;47.918;8.112;2023-04-23T01:36:25;90353.69;;;7.99;79.74
69909;BME280;57190;47.918;8.112;2023-04-23T01:38:51;90360.31;;;7.96;79.51
69909;BME280;57190;47.918;8.112;2023-04-23T01:41:17;90363.50;;;7.93;79.73
69909;BME280;57190;47.918;8.112;2023-04-23T01:43:44;90353.13;;;7.92;79.73
69909;BME280;57190;47.918;8.112;2023-04-23T01:46:10;90356.59;;;7.87;79.87
69909;BME280;57190;47.918;8.112;2023-04-23T01:48:36;90346.75;;;7.82;79.81
69909;BME280;57190;47.918;8.112;2023-04-23T01:51:02;90356.03;;;7.80;79.99
69909;BME280;57190;47.918;8.112;2023-04-23T01:53:28;90355.78;;;7.76;80.09
69909;BME280;57190;47.918;8.112;2023-04-23T01:55:55;90334.78;;;7.75;79.62
69909;BME280;57190;47.918;8.112;2023-04-23T01:58:21;90346.47;;;7.79;79.30
69909;BME280;57190;47.918;8.112;2023-04-23T02:00:48;90349.66;;;7.76;79.34
69909;BME280;57190;47.918;8.112;2023-04-23T02:03:14;90357.59;;;7.70;79.33
69909;BME280;57190;47.918;8.112;2023-04-23T02:05:40;90353.88;;;7.66;79.73
69909;BME280;57190;47.918;8.112;2023-04-23T02:08:06;90359.44;;;7.65;79.71
69909;BME280;57190;47.918;8.112;2023-04-23T02:10:32;90358.34;;;7.61;79.45
69909;BME280;57190;47.918;8.112;2023-04-23T02:12:58;90358.91;;;7.63;79.61
69909;BME280;57190;47.918;8.112;2023-04-23T02:15:23;90357.56;;;7.60;79.74
69909;BME280;57190;47.918;8.112;2023-04-23T02:17:49;90366.06;;;7.62;79.82
69909;BME280;57190;47.918;8.112;2023-04-23T02:20:17;90358.91;;;7.58;80.29
69909;BME280;57190;47.918;8.112;2023-04-23T02:22:44;90346.13;;;7.60;79.77
69909;BME280;57190;47.918;8.112;2023-04-23T02:25:10;90352.25;;;7.55;79.92
69909;BME280;57190;47.918;8.112;2023-04-23T02:27:36;90349.84;;;7.48;80.08
69909;BME280;57190;47.918;8.112;2023-04-23T02:30:02;90355.94;;;7.49;80.29
69909;BME280;57190;47.918;8.112;2023-04-23T02:32:28;90352.50;;;7.48;80.43
69909;BME280;57190;47.918;8.112;2023-04-23T02:34:53;90349.84;;;7.53;79.75
69909;BME280;57190;47.918;8.112;2023-04-23T02:37:19;90347.19;;;7.48;79.75
69909;BME280;57190;47.918;8.112;2023-04-23T02:39:45;90349.56;;;7.50;79.75
69909;BME280;57190;47.918;8.112;2023-04-23T02:42:12;90348.78;;;7.49;80.05
69909;BME280;57190;47.918;8.112;2023-04-23T02:44:38;90342.16;;;7.47;79.92
69909;BME280;57190;47.918;8.112;2023-04-23T02:47:04;90336.56;;;7.48;80.08
69909;BME280;57190;47.918;8.112;2023-04-23T02:49:29;90329.94;;;7.51;79.72
69909;BME280;57190;47.918;8.112;2023-04-23T02:51:55;90335.75;;;7.48;79.69
69909;BME280;57190;47.918;8.112;2023-04-23T02:54:20;90332.03;;;7.44;79.58
69909;BME280;57190;47.918;8.112;2023-04-23T02:56:46;90340.25;;;7.37;80.13
69909;BME280;57190;47.918;8.112;2023-04-23T02:59:12;90329.91;;;7.35;79.60
69909;BME280;57190;47.918;8.112;2023-04-23T03:01:38;90328.56;;;7.33;79.79
69909;BME280;57190;47.918;8.112;2023-04-23T03:04:03;90331.97;;;7.23;80.16
69909;BME280;57190;47.918;8.112;2023-04-23T03:06:29;90349.75;;;7.22;79.82
69909;BME280;57190;47.918;8.112;2023-04-23T03:08:56;90338.88;;;7.24;79.78
69909;BME280;57190;47.918;8.112;2023-04-23T03:11:21;90337.03;;;7.24;79.63
69909;BME280;57190;47.918;8.112;2023-04-23T03:13:47;90321.06;;;7.19;79.44
69909;BME280;57190;47.918;8.112;2023-04-23T03:16:13;90317.38;;;7.20;79.63
69909;BME280;57190;47.918;8.112;2023-04-23T03:18:39;90325.59;;;7.19;79.54
69909;BME280;57190;47.918;8.112;2023-04-23T03:21:04;90321.06;;;7.19;79.39
69909;BME280;57190;47.918;8.112;2023-04-23T03:23:31;90322.72;;;7.26;79.25
69909;BME280;57190;47.918;8.112;2023-04-23T03:25:56;90316.31;;;7.27;79.04
69909;BME280;57190;47.918;8.112;2023-04-23T03:28:22;90319.00;;;7.32;78.94
69909;BME280;57190;47.918;8.112;2023-04-23T03:30:48;90313.16;;;7.35;79.22
69909;BME280;57190;47.918;8.112;2023-04-23T03:33:13;90314.50;;;7.32;79.33
69909;BME280;57190;47.918;8.112;2023-04-23T03:35:39;90315.03;;;7.34;79.50
69909;BME280;57190;47.918;8.112;2023-04-23T03:38:05;90319.81;;;7.37;79.67
69909;BME280;57190;47.918;8.112;2023-04-23T03:40:30;90326.97;;;7.37;79.62
69909;BME280;57190;47.918;8.112;2023-04-23T03:42:56;90320.34;;;7.39;79.97
69909;BME280;57190;47.918;8.112;2023-04-23T03:45:22;90319.00;;;7.37;80.14
69909;BME280;57190;47.918;8.112;2023-04-23T03:47:48;90315.81;;;7.30;80.77
69909;BME280;57190;47.918;8.112;2023-04-23T03:50:13;90316.34;;;7.32;80.35
69909;BME280;57190;47.918;8.112;2023-04-23T03:52:39;90319.56;;;7.34;80.30
69909;BME280;57190;47.918;8.112;2023-04-23T03:55:05;90330.16;;;7.34;80.48
69909;BME280;57190;47.918;8.112;2023-04-23T03:57:32;90325.91;;;7.33;80.58
69909;BME280;57190;47.918;8.112;2023-04-23T03:59:58;90324.59;;;7.30;80.89
69909;BME280;57190;47.918;8.112;2023-04-23T04:02:23;90332.28;;;7.32;80.67
69909;BME280;57190;47.918;8.112;2023-04-23T04:04:49;90328.53;;;7.28;80.85
69909;BME280;57190;47.918;8.112;2023-04-23T04:07:16;90329.88;;;7.30;80.67
69909;BME280;57190;47.918;8.112;2023-04-23T04:09:42;90325.09;;;7.32;80.43
69909;BME280;57190;47.918;8.112;2023-04-23T04:12:07;90326.69;;;7.33;80.71
69909;BME280;57190;47.918;8.112;2023-04-23T04:14:33;90316.91;;;7.34;80.42
69909;BME280;57190;47.918;8.112;2023-04-23T04:16:59;90319.00;;;7.32;80.45
69909;BME280;57190;47.918;8.112;2023-04-23T04:19:24;90325.66;;;7.34;80.24
69909;BME280;57190;47.918;8.112;2023-04-23T04:21:50;90326.97;;;7.37;80.31
69909;BME280;57190;47.918;8.112;2023-04-23T04:24:16;90330.97;;;7.39;80.26
69909;BME280;57190;47.918;8.112;2023-04-23T04:26:43;90324.34;;;7.42;79.94
69909;BME280;57190;47.918;8.112;2023-04-23T04:29:10;90321.69;;;7.42;79.97
69909;BME280;57190;47.918;8.112;2023-04-23T04:31:36;90324.59;;;7.40;79.94
69909;BME280;57190;47.918;8.112;2023-04-23T04:34:02;90322.22;;;7.39;79.99
69909;BME280;57190;47.918;8.112;2023-04-23T04:36:28;90326.19;;;7.36;80.55
69909;BME280;57190;47.918;8.112;2023-04-23T04:38:54;90313.72;;;7.37;80.14
69909;BME280;57190;47.918;8.112;2023-04-23T04:41:26;90323.00;;;7.39;80.20
69909;BME280;57190;47.918;8.112;2023-04-23T04:43:53;90315.03;;;7.39;79.96
69909;BME280;57190;47.918;8.112;2023-04-23T04:46:23;90320.09;;;7.41;79.38
69909;BME280;57190;47.918;8.112;2023-04-23T04:48:50;90318.22;;;7.42;79.37
69909;BME280;57190;47.918;8.112;2023-04-23T04:51:16;90313.19;;;7.40;79.80
69909;BME280;57190;47.918;8.112;2023-04-23T04:53:42;90319.00;;;7.37;80.01
69909;BME280;57190;47.918;8.112;2023-04-23T04:56:07;90307.63;;;7.42;79.84
69909;BME280;57190;47.918;8.112;2023-04-23T04:58:33;90314.00;;;7.46;79.53
69909;BME280;57190;47.918;8.112;2023-04-23T05:00:59;90313.47;;;7.49;79.36
69909;BME280;57190;47.918;8.112;2023-04-23T05:03:26;90319.84;;;7.48;79.28
69909;BME280;57190;47.918;8.112;2023-04-23T05:05:52;90324.34;;;7.52;79.54
69909;BME280;57190;47.918;8.112;2023-04-23T05:15:10;90318.03;;;7.59;79.12
69909;BME280;57190;47.918;8.112;2023-04-23T05:17:38;90310.84;;;7.64;78.88
69909;BME280;57190;47.918;8.112;2023-04-23T05:20:04;90315.66;;;7.72;78.99
69909;BME280;57190;47.918;8.112;2023-04-23T05:22:30;90311.97;;;7.79;78.88
69909;BME280;57190;47.918;8.112;2023-04-23T05:24:56;90311.41;;;7.82;79.07
69909;BME280;57190;47.918;8.112;2023-04-23T05:27:21;90317.00;;;7.85;78.44
69909;BME280;57190;47.918;8.112;2023-04-23T05:29:47;90320.19;;;7.87;78.30
69909;BME280;57190;47.918;8.112;2023-04-23T05:32:12;90311.97;;;7.94;78.23
69909;BME280;57190;47.918;8.112;2023-04-23T05:34:38;90317.56;;;7.98;78.48
69909;BME280;57190;47.918;8.112;2023-04-23T05:37:04;90321.81;;;7.99;78.45
69909;BME280;57190;47.918;8.112;2023-04-23T05:39:30;90316.22;;;8.00;78.42
69909;BME280;57190;47.918;8.112;2023-04-23T05:41:56;90314.38;;;8.06;78.46
69909;BME280;57190;47.918;8.112;2023-04-23T05:44:22;90312.25;;;8.13;77.55
69909;BME280;57190;47.918;8.112;2023-04-23T05:46:48;90312.78;;;8.31;77.00
69909;BME280;57190;47.918;8.112;2023-04-23T05:49:14;90303.47;;;8.44;76.79
69909;BME280;57190;47.918;8.112;2023-04-23T05:51:40;90314.09;;;8.59;76.16
69909;BME280;57190;47.918;8.112;2023-04-23T05:54:05;90311.97;;;8.72;75.79
69909;BME280;57190;47.918;8.112;2023-04-23T05:56:31;90315.13;;;8.89;75.21
69909;BME280;57190;47.918;8.112;2023-04-23T05:58:56;90311.09;;;9.02;74.32
69909;BME280;57190;47.918;8.112;2023-04-23T06:01:22;90306.81;;;9.06;72.86
69909;BME280;57190;47.918;8.112;2023-04-23T06:03:47;90313.72;;;9.12;73.13
69909;BME280;57190;47.918;8.112;2023-04-23T06:06:13;90311.56;;;9.20;72.50
69909;BME280;57190;47.918;8.112;2023-04-23T06:08:39;90317.41;;;9.22;72.71
69909;BME280;57190;47.918;8.112;2023-04-23T06:11:05;90318.16;;;9.33;73.38
69909;BME280;57190;47.918;8.112;2023-04-23T06:13:31;90322.91;;;9.46;72.50
69909;BME280;57190;47.918;8.112;2023-04-23T06:15:57;90316.69;;;9.66;71.51
69909;BME280;57190;47.918;8.112;2023-04-23T06:18:23;90310.50;;;9.76;71.29
69909;BME280;57190;47.918;8.112;2023-04-23T06:20:48;90305.66;;;9.88;70.53
69909;BME280;57190;47.918;8.112;2023-04-23T06:23:16;90306.56;;;10.08;69.59
69909;BME280;57190;47.918;8.112;2023-04-23T06:25:42;90295.81;;;10.23;68.71
69909;BME280;57190;47.918;8.112;2023-04-23T06:28:07;90291.03;;;10.20;69.35
69909;BME280;57190;47.918;8.112;2023-04-23T06:30:33;90293.88;;;10.29;68.96
69909;BME280;57190;47.918;8.112;2023-04-23T06:33:00;90295.78;;;10.29;69.00
69909;BME280;57190;47.918;8.112;2023-04-23T06:35:25;90286.94;;;10.33;68.09
69909;BME280;57190;47.918;8.112;2023-04-23T06:37:51;90289.50;;;10.14;68.02
69909;BME280;57190;47.918;8.112;2023-04-23T06:40:16;90286.53;;;10.16;67.32
69909;BME280;57190;47.918;8.112;2023-04-23T06:42:42;90298.75;;;10.22;66.84
69909;BME280;57190;47.918;8.112;2023-04-23T06:45:10;90283.22;;;10.29;67.08
69909;BME280;57190;47.918;8.112;2023-04-23T06:47:35;90278.91;;;10.44;67.53
69909;BME280;57190;47.918;8.112;2023-04-23T06:50:01;90277.16;;;10.58;66.45
69909;BME280;57190;47.918;8.112;2023-04-23T06:52:27;90278.31;;;10.76;65.33
69909;BME280;57190;47.918;8.112;2023-04-23T06:54:53;90276.19;;;11.03;64.78
69909;BME280;57190;47.918;8.112;2023-04-23T06:57:19;90266.84;;;11.24;65.20
69909;BME280;57190;47.918;8.112;2023-04-23T06:59:46;90269.84;;;11.42;64.08
69909;BME280;57190;47.918;8.112;2023-04-23T07:02:11;90269.94;;;11.37;63.45
69909;BME280;57190;47.918;8.112;2023-04-23T07:04:37;90275.38;;;11.26;63.36
69909;BME280;57190;47.918;8.112;2023-04-23T07:07:02;90270.16;;;11.16;63.32
69909;BME280;57190;47.918;8.112;2023-04-23T07:09:28;90262.22;;;11.11;63.04
69909;BME280;57190;47.918;8.112;2023-04-23T07:11:54;90275.13;;;11.04;63.42
69909;BME280;57190;47.918;8.112;2023-04-23T07:14:19;90267.59;;;11.06;63.79
69909;BME280;57190;47.918;8.112;2023-04-23T07:16:45;90275.34;;;11.07;64.62
69909;BME280;57190;47.918;8.112;2023-04-23T07:19:10;90259.94;;;11.23;62.71
69909;BME280;57190;47.918;8.112;2023-04-23T07:21:36;90251.00;;;11.33;62.07
69909;BME280;57190;47.918;8.112;2023-04-23T07:24:02;90251.94;;;11.42;61.60
69909;BME280;57190;47.918;8.112;2023-04-23T07:26:33;90249.75;;;11.69;60.08
69909;BME280;57190;47.918;8.112;2023-04-23T07:28:59;90243.50;;;12.31;59.57
69909;BME280;57190;47.918;8.112;2023-04-23T07:31:26;90244.34;;;13.20;58.39
69909;BME280;57190;47.918;8.112;2023-04-23T07:33:53;90241.69;;;14.21;57.15
69909;BME280;57190;47.918;8.112;2023-04-23T07:36:19;90233.59;;;15.61;51.69
69909;BME280;57190;47.918;8.112;2023-04-23T07:38:45;90219.94;;;16.33;50.09
69909;BME280;57190;47.918;8.112;2023-04-23T07:41:11;90223.00;;;17.44;46.89
69909;BME280;57190;47.918;8.112;2023-04-23T07:43:37;90225.53;;;17.10;47.03
69909;BME280;57190;47.918;8.112;2023-04-23T07:46:03;90224.34;;;16.29;47.21
69909;BME280;57190;47.918;8.112;2023-04-23T07:48:29;90215.59;;;16.76;45.56
69909;BME280;57190;47.918;8.112;2023-04-23T07:50:55;90232.16;;;15.64;48.72
69909;BME280;57190;47.918;8.112;2023-04-23T07:53:21;90240.28;;;15.32;51.21
69909;BME280;57190;47.918;8.112;2023-04-23T07:55:47;90244.81;;;14.83;51.21
69909;BME280;57190;47.918;8.112;2023-04-23T07:58:12;90243.13;;;14.64;52.98
69909;BME280;57190;47.918;8.112;2023-04-23T08:00:38;90241.22;;;14.65;52.90
69909;BME280;57190;47.918;8.112;2023-04-23T08:03:03;90245.56;;;14.29;53.96
69909;BME280;57190;47.918;8.112;2023-04-23T08:05:29;90233.59;;;14.12;55.29
69909;BME280;57190;47.918;8.112;2023-04-23T08:07:54;90235.91;;;14.28;54.82
69909;BME280;57190;47.918;8.112;2023-04-23T08:10:20;90233.06;;;14.70;55.26
69909;BME280;57190;47.918;8.112;2023-04-23T08:12:45;90229.63;;;14.78;54.22
69909;BME280;57190;47.918;8.112;2023-04-23T08:15:11;90229.31;;;14.57;53.52
69909;BME280;57190;47.918;8.112;2023-04-23T08:17:36;90224.41;;;14.73;53.47
69909;BME280;57190;47.918;8.112;2023-04-23T08:20:03;90225.19;;;15.05;52.92
69909;BME280;57190;47.918;8.112;2023-04-23T08:22:31;90216.25;;;15.18;51.10
69909;BME280;57190;47.918;8.112;2023-04-23T08:24:56;90225.91;;;15.37;51.40
69909;BME280;57190;47.918;8.112;2023-04-23T08:27:22;90220.72;;;15.40;50.64
69909;BME280;57190;47.918;8.112;2023-04-23T08:29:47;90222.63;;;15.40;51.43
69909;BME280;57190;47.918;8.112;2023-04-23T08:32:12;90225.16;;;14.96;51.81
69909;BME280;57190;47.918;8.112;2023-04-23T08:34:38;90214.84;;;14.89;52.62
69909;BME280;57190;47.918;8.112;2023-04-23T08:37:03;90215.16;;;15.86;52.50
69909;BME280;57190;47.918;8.112;2023-04-23T08:39:29;90206.78;;;15.87;50.48
69909;BME280;57190;47.918;8.112;2023-04-23T08:42:03;90207.41;;;16.37;50.11
69909;BME280;57190;47.918;8.112;2023-04-23T08:44:30;90206.91;;;16.70;49.38
69909;BME280;57190;47.918;8.112;2023-04-23T08:46:57;90202.19;;;17.53;48.52
69909;BME280;57190;47.918;8.112;2023-04-23T08:49:25;90201.19;;;17.97;46.99
69909;BME280;57190;47.918;8.112;2023-04-23T08:52:10;90207.53;;;17.92;48.06
69909;BME280;57190;47.918;8.112;2023-04-23T08:54:40;90200.97;;;17.42;47.01
69909;BME280;57190;47.918;8.112;2023-04-23T08:57:09;90197.53;;;16.67;47.03
69909;BME280;57190;47.918;8.112;2023-04-23T08:59:36;90194.81;;;16.85;48.85
69909;BME280;57190;47.918;8.112;2023-04-23T09:02:04;90197.50;;;17.03;47.94
69909;BME280;57190;47.918;8.112;2023-04-23T09:04:34;90194.66;;;17.38;46.47
69909;BME280;57190;47.918;8.112;2023-04-23T09:07:00;90196.13;;;17.26;45.57
69909;BME280;57190;47.918;8.112;2023-04-23T09:09:28;90195.41;;;17.08;46.45
69909;BME280;57190;47.918;8.112;2023-04-23T09:11:57;90184.38;;;16.75;48.22
69909;BME280;57190;47.918;8.112;2023-04-23T09:14:23;90193.88;;;16.99;47.09
69909;BME280;57190;47.918;8.112;2023-04-23T09:16:50;90189.63;;;17.27;45.52
69909;BME280;57190;47.918;8.112;2023-04-23T09:19:17;90188.28;;;17.72;45.51
69909;BME280;57190;47.918;8.112;2023-04-23T09:21:44;90189.53;;;17.15;45.34
69909;BME280;57190;47.918;8.112;2023-04-23T09:24:10;90182.56;;;16.40;45.79
69909;BME280;57190;47.918;8.112;2023-04-23T09:26:46;90186.84;;;16.06;46.25
69909;BME280;57190;47.918;8.112;2023-04-23T09:29:17;90184.63;;;15.91;46.23
69909;BME280;57190;47.918;8.112;2023-04-23T09:31:47;90181.63;;;15.92;47.62
69909;BME280;57190;47.918;8.112;2023-04-23T09:34:17;90178.31;;;15.95;47.28
69909;BME280;57190;47.918;8.112;2023-04-23T09:36:44;90178.28;;;16.04;47.98
69909;BME280;57190;47.918;8.112;2023-04-23T09:39:14;90168.28;;;16.48;48.21
69909;BME280;57190;47.918;8.112;2023-04-23T09:41:41;90171.97;;;17.39;46.03
69909;BME280;57190;47.918;8.112;2023-04-23T09:44:07;90170.72;;;17.36;44.84
69909;BME280;57190;47.918;8.112;2023-04-23T09:46:40;90169.59;;;17.67;45.37
69909;BME280;57190;47.918;8.112;2023-04-23T09:49:07;90169.66;;;17.58;45.31
69909;BME280;57190;47.918;8.112;2023-04-23T09:51:38;90168.78;;;17.46;44.91
69909;BME280;57190;47.918;8.112;2023-04-23T09:54:10;90161.84;;;17.36;45.06
69909;BME280;57190;47.918;8.112;2023-04-23T09:56:36;90161.97;;;17.09;45.75
69909;BME280;57190;47.918;8.112;2023-04-23T09:59:01;90173.38;;;17.15;46.96
69909;BME280;57190;47.918;8.112;2023-04-23T10:01:28;90161.13;;;17.18;45.38
69909;BME280;57190;47.918;8.112;2023-04-23T10:03:54;90161.34;;;17.42;45.15
69909;BME280;57190;47.918;8.112;2023-04-23T10:06:28;90162.69;;;17.57;44.60
69909;BME280;57190;47.918;8.112;2023-04-23T10:08:57;90153.25;;;17.42;44.57
69909;BME280;57190;47.918;8.112;2023-04-23T10:11:26;90165.47;;;17.40;44.55
69909;BME280;57190;47.918;8.112;2023-04-23T10:13:52;90154.78;;;17.52;45.00
69909;BME280;57190;47.918;8.112;2023-04-23T10:16:20;90157.91;;;17.84;45.00
69909;BME280;57190;47.918;8.112;2023-04-23T10:18:46;90147.81;;;17.72;44.12
69909;BME280;57190;47.918;8.112;2023-04-23T10:21:13;90148.63;;;17.73;44.41
69909;BME280;57190;47.918;8.112;2023-04-23T10:23:41;90153.94;;;17.60;44.80
69909;BME280;57190;47.918;8.112;2023-04-23T10:26:09;90155.78;;;17.90;44.63
69909;BME280;57190;47.918;8.112;2023-04-23T10:28:38;90150.38;;;17.69;43.78
69909;BME280;57190;47.918;8.112;2023-04-23T10:31:05;90149.22;;;17.79;44.88
69909;BME280;57190;47.918;8.112;2023-04-23T10:33:31;90147.91;;;17.85;44.93
69909;BME280;57190;47.918;8.112;2023-04-23T10:35:57;90146.97;;;17.81;45.13
69909;BME280;57190;47.918;8.112;2023-04-23T10:38:25;90141.19;;;17.91;44.77
69909;BME280;57190;47.918;8.112;2023-04-23T10:40:54;90137.28;;;18.10;45.65
69909;BME280;57190;47.918;8.112;2023-04-23T10:43:21;90140.84;;;18.35;43.95
69909;BME280;57190;47.918;8.112;2023-04-23T10:45:48;90137.09;;;18.48;43.21
69909;BME280;57190;47.918;8.112;2023-04-23T10:48:14;90129.44;;;18.50;43.90
69909;BME280;57190;47.918;8.112;2023-04-23T10:50:41;90132.16;;;18.50;43.39
69909;BME280;57190;47.918;8.112;2023-04-23T10:53:18;90123.84;;;18.68;43.06
69909;BME280;57190;47.918;8.112;2023-04-23T10:55:45;90128.19;;;18.48;43.50
69909;BME280;57190;47.918;8.112;2023-04-23T10:58:11;90125.41;;;18.23;43.03
69909;BME280;57190;47.918;8.112;2023-04-23T11:06:03;90120.09;;;18.14;43.69
69909;BME280;57190;47.918;8.112;2023-04-23T11:08:29;90101.16;;;18.35;44.28
69909;BME280;57190;47.918;8.112;2023-04-23T11:10:58;90102.22;;;17.80;44.53
69909;BME280;57190;47.918;8.112;2023-04-23T11:13:25;90106.88;;;18.00;44.32
69909;BME280;57190;47.918;8.112;2023-04-23T11:16:14;90105.84;;;17.41;44.63
69909;BME280;57190;47.918;8.112;2023-04-23T11:19:02;90090.31;;;16.70;44.79
69909;BME280;57190;47.918;8.112;2023-04-23T11:21:56;90111.72;;;16.66;46.01
69909;BME280;57190;47.918;8.112;2023-04-23T11:24:39;90104.66;;;16.91;45.26
69909;BME280;57190;47.918;8.112;2023-04-23T11:27:14;90099.63;;;17.20;44.23
69909;BME280;57190;47.918;8.112;2023-04-23T11:29:42;90080.09;;;17.53;44.03
69909;BME280;57190;47.918;8.112;2023-04-23T11:32:08;90089.78;;;17.45;44.21
69909;BME280;57190;47.918;8.112;2023-04-23T11:34:42;90089.78;;;17.45;45.61
69909;BME280;57190;47.918;8.112;2023-04-23T11:37:09;90091.31;;;17.55;44.94
69909;BME280;57190;47.918;8.112;2023-04-23T11:39:35;90084.22;;;17.71;44.37
69909;BME280;57190;47.918;8.112;2023-04-23T11:42:01;90086.13;;;17.92;45.16
69909;BME280;57190;47.918;8.112;2023-04-23T11:44:27;90088.75;;;18.01;44.14
69909;BME280;57190;47.918;8.112;2023-04-23T11:46:53;90089.56;;;17.59;43.34
69909;BME280;57190;47.918;8.112;2023-04-23T11:49:18;90075.97;;;17.25;44.88
69909;BME280;57190;47.918;8.112;2023-04-23T11:51:46;90075.53;;;17.23;44.68
69909;BME280;57190;47.918;8.112;2023-04-23T11:54:12;90069.22;;;17.40;45.44
69909;BME280;57190;47.918;8.112;2023-04-23T11:56:39;90067.84;;;17.55;44.29
69909;BME280;57190;47.918;8.112;2023-04-23T11:59:05;90062.03;;;17.23;44.22
69909;BME280;57190;47.918;8.112;2023-04-23T12:04:13;90068.56;;;17.43;45.11
69909;BME280;57190;47.918;8.112;2023-04-23T12:06:40;90048.00;;;17.39;43.66
69909;BME280;57190;47.918;8.112;2023-04-23T12:09:06;90056.00;;;16.96;44.17
69909;BME280;57190;47.918;8.112;2023-04-23T12:11:34;90048.53;;;16.63;43.86
69909;BME280;57190;47.918;8.112;2023-04-23T12:14:00;90045.50;;;16.65;44.44
69909;BME280;57190;47.918;8.112;2023-04-23T12:16:36;90044.13;;;16.97;44.59
69909;BME280;57190;47.918;8.112;2023-04-23T12:19:03;90037.63;;;16.90;43.40
69909;BME280;57190;47.918;8.112;2023-04-23T12:21:28;90039.84;;;16.58;43.71
69909;BME280;57190;47.918;8.112;2023-04-23T12:23:55;90036.81;;;16.59;44.59
69909;BME280;57190;47.918;8.112;2023-04-23T12:26:21;90037.34;;;16.53;44.38
69909;BME280;57190;47.918;8.112;2023-04-23T12:28:49;90039.28;;;16.43;45.26
69909;BME280;57190;47.918;8.112;2023-04-23T12:31:19;90039.28;;;16.43;45.44
69909;BME280;57190;47.918;8.112;2023-04-23T12:33:45;90029.56;;;16.51;46.86
69909;BME280;57190;47.918;8.112;2023-04-23T12:36:13;90037.31;;;16.61;46.41
69909;BME280;57190;47.918;8.112;2023-04-23T12:38:39;90026.56;;;16.91;45.10
69909;BME280;57190;47.918;8.112;2023-04-23T12:41:06;90031.59;;;17.23;45.54
69909;BME280;57190;47.918;8.112;2023-04-23T12:43:32;90032.78;;;17.34;44.73
69909;BME280;57190;47.918;8.112;2023-04-23T12:45:57;90030.63;;;17.27;43.32
69909;BME280;57190;47.918;8.112;2023-04-23T12:48:22;90027.75;;;17.03;43.94
69909;BME280;57190;47.918;8.112;2023-04-23T12:50:48;90027.13;;;17.06;44.72
69909;BME280;57190;47.918;8.112;2023-04-23T12:53:14;90016.25;;;16.93;43.62
69909;BME280;57190;47.918;8.112;2023-04-23T12:55:39;90017.47;;;16.66;43.44
69909;BME280;57190;47.918;8.112;2023-04-23T12:58:07;90017.31;;;16.32;44.10
69909;BME280;57190;47.918;8.112;2023-04-23T13:00:33;90021.47;;;16.21;45.13
69909;BME280;57190;47.918;8.112;2023-04-23T13:02:58;90013.69;;;16.28;46.11
69909;BME280;57190;47.918;8.112;2023-04-23T13:05:24;90015.38;;;16.42;45.89
69909;BME280;57190;47.918;8.112;2023-04-23T13:07:50;90017.19;;;16.59;45.96
69909;BME280;57190;47.918;8.112;2023-04-23T13:13:39;89995.09;;;16.74;45.68
69909;BME280;57190;47.918;8.112;2023-04-23T13:16:05;89996.13;;;16.61;46.30
69909;BME280;57190;47.918;8.112;2023-04-23T13:18:30;89985.81;;;16.63;47.08
69909;BME280;57190;47.918;8.112;2023-04-23T13:20:56;89984.16;;;16.49;47.56